Time;durP1;ratioP1;P1;durP2;ratioP2;P2;SDS_P1;SDS_P2;PMS_P1;PMS_P2;Temp;Humidity;BMP_temperature;BMP_pressure;BME280_temperature;BME280_humidity;BME280_pressure;Samples;Min_cycle;Max_cycle;Signal;HPM_P1;HPM_P2
2021/12/11 00:02:56;;;;;;;;;;;-3276.50;92.10;;;;;;6235069;28;19971;-55
2021/12/11 00:06:17;;;;;;;;;;;-3276.50;91.80;;;;;;6237417;28;19913;-57
2021/12/11 00:09:21;;;;;;;;;;;-3276.50;91.70;;;;;;6232177;28;19996;-55
2021/12/11 00:12:27;;;;;;;;;;;-3276.50;91.80;;;;;;6230463;28;20020;-53
2021/12/11 00:15:31;;;;;;;;;;;-3276.50;92.00;;;;;;6250116;28;19909;-56
2021/12/11 00:18:32;;;;;;;;;;;-3276.40;92.00;;;;;;6236169;28;19909;-57
2021/12/11 00:21:33;;;;;;;;;;;-3276.40;91.90;;;;;;6193872;28;19996;-54
2021/12/11 00:24:35;;;;;;;;;;;-3276.40;91.80;;;;;;6219920;28;19940;-55
2021/12/11 00:27:38;;;;;;;;;;;-3276.30;91.90;;;;;;6240860;28;19917;-58
2021/12/11 00:30:42;;;;;;;;;;;-3276.30;91.90;;;;;;6227292;28;19933;-57
2021/12/11 00:33:43;;;;;;;;;;;-3276.20;91.70;;;;;;6211355;28;19916;-58
2021/12/11 00:36:52;;;;;;;;;;;-3276.10;91.90;;;;;;6254511;28;19964;-57
2021/12/11 00:39:55;;;;;;;;;;;-3276.00;92.00;;;;;;6228619;28;19953;-57
2021/12/11 00:42:58;;;;;;;;;;;-3275.90;92.20;;;;;;6228204;28;19921;-56
2021/12/11 00:45:59;;;;;;;;;;;-3275.90;92.30;;;;;;6228638;28;19909;-57
2021/12/11 00:49:28;;;;;;;;;;;-3275.90;92.50;;;;;;6216724;28;19916;-51
2021/12/11 00:52:36;;;;;;;;;;;-3275.90;92.30;;;;;;6224665;28;19909;-56
2021/12/11 00:55:39;;;;;;;;;;;-3276.00;92.50;;;;;;6216726;28;20013;-55
2021/12/11 00:58:40;;;;;;;;;;;-3276.00;92.60;;;;;;6198042;28;19917;-51
2021/12/11 01:01:50;;;;;;;;;;;-3276.00;92.70;;;;;;6210597;28;19919;-52
2021/12/11 01:04:51;;;;;;;;;;;-3276.00;92.80;;;;;;6224453;28;19909;-59
2021/12/11 01:07:53;;;;;;;;;;;-3276.00;92.90;;;;;;6216895;28;19909;-53
2021/12/11 01:10:57;;;;;;;;;;;-3276.10;92.80;;;;;;6225003;28;19913;-55
2021/12/11 01:14:11;;;;;;;;;;;-3276.10;92.80;;;;;;6202463;28;19910;-55
2021/12/11 01:17:40;;;;;;;;;;;-3276.10;92.90;;;;;;6233826;28;19932;-54
2021/12/11 01:20:47;;;;;;;;;;;-3276.10;92.90;;;;;;6227014;28;20008;-54
2021/12/11 01:24:08;;;;;;;;;;;-3276.10;92.80;;;;;;6267255;28;19936;-58
2021/12/11 01:27:11;;;;;;;;;;;-3276.10;92.80;;;;;;6223513;28;19909;-55
2021/12/11 01:30:15;;;;;;;;;;;-3276.10;92.80;;;;;;6226093;28;19910;-57
2021/12/11 01:33:16;;;;;;;;;;;-3276.10;92.70;;;;;;6209719;28;19914;-56
2021/12/11 01:36:17;;;;;;;;;;;-3276.20;92.50;;;;;;6225951;28;19913;-55
2021/12/11 01:39:25;;;;;;;;;;;-3276.20;92.50;;;;;;6227232;28;20000;-56
2021/12/11 01:42:29;;;;;;;;;;;-3276.10;92.60;;;;;;6226285;28;19917;-56
2021/12/11 01:45:30;;;;;;;;;;;-3276.20;92.50;;;;;;6225849;28;19963;-58
2021/12/11 01:48:34;;;;;;;;;;;-3276.10;92.30;;;;;;6250380;28;19913;-56
2021/12/11 01:51:38;;;;;;;;;;;-3276.10;92.50;;;;;;6233990;28;20067;-57
2021/12/11 01:54:41;;;;;;;;;;;-3276.20;92.60;;;;;;6245618;28;19909;-54
2021/12/11 01:57:46;;;;;;;;;;;-3276.20;92.60;;;;;;6225577;28;19925;-57
2021/12/11 02:00:50;;;;;;;;;;;-3276.20;92.60;;;;;;6195871;28;19913;-55
2021/12/11 02:03:52;;;;;;;;;;;-3276.20;92.60;;;;;;6201329;28;19941;-55
2021/12/11 02:06:54;;;;;;;;;;;-3276.20;92.60;;;;;;6195977;28;19960;-56
2021/12/11 02:09:58;;;;;;;;;;;-3276.20;92.60;;;;;;6209237;28;19917;-55
2021/12/11 02:12:59;;;;;;;;;;;-3276.20;92.70;;;;;;6209223;28;20004;-55
2021/12/11 02:16:00;;;;;;;;;;;-3276.30;92.70;;;;;;6226343;28;19944;-55
2021/12/11 02:19:04;;;;;;;;;;;-3276.30;92.70;;;;;;6247101;28;19920;-57
2021/12/11 02:22:10;;;;;;;;;;;-3276.30;92.70;;;;;;6266545;28;19913;-57
2021/12/11 02:25:16;;;;;;;;;;;-3276.30;92.70;;;;;;6250818;28;19916;-55
2021/12/11 02:28:17;;;;;;;;;;;-3276.30;92.50;;;;;;6200989;28;19913;-56
2021/12/11 02:31:27;;;;;;;;;;;-3276.30;92.40;;;;;;6200483;28;19910;-53
2021/12/11 02:34:35;;;;;;;;;;;-3276.30;92.20;;;;;;6221009;28;19920;-57
2021/12/11 02:37:39;;;;;;;;;;;-3276.30;92.30;;;;;;6242618;28;19909;-55
2021/12/11 02:40:54;;;;;;;;;;;-3276.30;92.20;;;;;;6224833;28;19999;-56
2021/12/11 02:43:57;;;;;;;;;;;-3276.30;92.40;;;;;;6233215;28;19913;-56
2021/12/11 02:47:03;;;;;;;;;;;-3276.30;92.50;;;;;;6232760;28;19909;-57
2021/12/11 02:50:07;;;;;;;;;;;-3276.30;92.40;;;;;;6248883;28;19909;-53
2021/12/11 02:53:11;;;;;;;;;;;-3276.30;92.30;;;;;;6248920;28;19963;-55
2021/12/11 02:56:20;;;;;;;;;;;-3276.20;92.30;;;;;;6243597;28;19913;-52
2021/12/11 02:59:25;;;;;;;;;;;-3276.30;92.30;;;;;;6184716;28;19918;-55
2021/12/11 03:02:29;;;;;;;;;;;-3276.30;92.30;;;;;;6200538;28;19960;-54
2021/12/11 03:05:39;;;;;;;;;;;-3276.30;92.20;;;;;;6210661;28;19913;-57
2021/12/11 03:08:41;;;;;;;;;;;-3276.30;92.00;;;;;;6200421;28;19920;-58
2021/12/11 03:11:42;;;;;;;;;;;-3276.30;92.00;;;;;;6221554;28;19920;-57
2021/12/11 03:14:43;;;;;;;;;;;-3276.30;92.00;;;;;;6257747;28;19975;-54
2021/12/11 03:17:44;;;;;;;;;;;-3276.20;91.70;;;;;;6225653;28;19910;-54
2021/12/11 03:20:46;;;;;;;;;;;-3276.20;91.90;;;;;;6207780;28;19913;-55
2021/12/11 03:23:48;;;;;;;;;;;-3276.20;91.80;;;;;;6224681;28;19917;-56
2021/12/11 03:26:50;;;;;;;;;;;-3276.20;91.60;;;;;;6224221;28;19913;-57
2021/12/11 03:29:51;;;;;;;;;;;-3276.10;91.50;;;;;;6236409;28;19909;-54
2021/12/11 03:32:53;;;;;;;;;;;-3276.10;91.40;;;;;;6226109;28;19916;-53
2021/12/11 03:35:55;;;;;;;;;;;-3276.00;91.20;;;;;;6217145;28;19971;-57
2021/12/11 03:38:58;;;;;;;;;;;-3276.00;91.40;;;;;;6224482;28;19916;-55
2021/12/11 03:42:00;;;;;;;;;;;-3275.90;91.30;;;;;;6219467;28;19913;-57
2021/12/11 03:45:04;;;;;;;;;;;-3275.80;91.30;;;;;;6224521;28;19956;-57
2021/12/11 03:48:10;;;;;;;;;;;-3275.70;91.30;;;;;;6223227;28;19981;-58
2021/12/11 03:51:12;;;;;;;;;;;-3275.70;91.30;;;;;;6224042;28;20003;-58
2021/12/11 03:54:15;;;;;;;;;;;-3275.60;91.30;;;;;;6226226;28;19913;-56
2021/12/11 03:57:17;;;;;;;;;;;-3275.50;91.40;;;;;;6199292;28;19924;-54
2021/12/11 04:00:19;;;;;;;;;;;-3275.50;91.40;;;;;;6203928;28;19914;-56
2021/12/11 04:03:21;;;;;;;;;;;-3275.40;91.60;;;;;;6205039;28;19956;-57
2021/12/11 04:06:22;;;;;;;;;;;-3275.30;91.70;;;;;;6245252;28;19964;-53
2021/12/11 04:09:23;;;;;;;;;;;-3275.30;91.80;;;;;;6219902;28;20324;-56
2021/12/11 04:12:25;;;;;;;;;;;-3275.20;91.90;;;;;;6215756;28;19956;-58
2021/12/11 04:15:26;;;;;;;;;;;-3275.10;92.00;;;;;;6188940;28;19961;-57
2021/12/11 04:18:27;;;;;;;;;;;-3275.20;92.10;;;;;;6244214;28;19917;-56
2021/12/11 04:21:27;;;;;;;;;;;-3275.20;92.20;;;;;;6236912;28;19909;-56
2021/12/11 04:24:30;;;;;;;;;;;-3275.10;92.10;;;;;;6235690;28;19913;-56
2021/12/11 04:27:30;;;;;;;;;;;-3275.10;92.30;;;;;;6235916;28;19932;-58
2021/12/11 04:30:31;;;;;;;;;;;-3275.00;92.10;;;;;;6225471;28;19917;-53
2021/12/11 04:33:34;;;;;;;;;;;-3275.00;92.20;;;;;;6197763;28;19920;-51
2021/12/11 04:36:38;;;;;;;;;;;-3275.00;92.10;;;;;;6220553;28;19916;-56
2021/12/11 04:39:40;;;;;;;;;;;-3275.00;92.20;;;;;;6226228;28;19916;-53
2021/12/11 04:45:48;;;;;;;;;;;-3274.90;92.30;;;;;;6243142;28;19917;-53
2021/12/11 04:49:01;;;;;;;;;;;-3275.00;92.40;;;;;;6235612;28;19959;-56
2021/12/11 04:55:28;;;;;;;;;;;-3274.90;92.60;;;;;;6244039;28;19909;-56
2021/12/11 05:01:42;;;;;;;;;;;-3275.00;92.40;;;;;;6258968;28;19910;-56
2021/12/11 05:05:01;;;;;;;;;;;-3275.00;92.80;;;;;;6221597;28;19947;-52
2021/12/11 05:09:13;;;;;;;;;;;-3275.00;92.40;;;;;;6240863;28;19951;-56
2021/12/11 05:11:34;;;;;;;;;;;-3275.00;92.60;;;;;;6236462;28;19930;-53
2021/12/11 05:14:35;;;;;;;;;;;-3275.10;92.60;;;;;;6225596;28;19927;-58
2021/12/11 05:17:35;;;;;;;;;;;-3275.20;92.70;;;;;;6228532;28;19922;-54
2021/12/11 05:20:37;;;;;;;;;;;-3275.20;92.70;;;;;;6228876;28;19922;-56
2021/12/11 05:23:38;;;;;;;;;;;-3275.20;92.20;;;;;;6220796;28;20048;-56
2021/12/11 05:26:39;;;;;;;;;;;-3275.20;92.40;;;;;;6210394;28;19930;-52
2021/12/11 05:29:39;;;;;;;;;;;-3275.20;92.40;;;;;;6223156;28;19948;-53
2021/12/11 05:32:40;;;;;;;;;;;-3275.20;92.50;;;;;;6234670;28;19924;-50
2021/12/11 05:35:42;;;;;;;;;;;-3275.20;92.50;;;;;;6250280;28;19924;-53
2021/12/11 05:38:43;;;;;;;;;;;-3275.20;92.40;;;;;;6217790;28;19932;-53
2021/12/11 05:41:44;;;;;;;;;;;-3275.40;92.30;;;;;;6217137;28;19925;-55
2021/12/11 05:44:45;;;;;;;;;;;-3275.40;91.90;;;;;;6225890;28;19929;-53
2021/12/11 05:47:46;;;;;;;;;;;-3275.30;92.00;;;;;;6201884;28;19999;-55
2021/12/11 05:50:50;;;;;;;;;;;-3275.30;92.20;;;;;;6208440;28;20387;-54
2021/12/11 05:53:54;;;;;;;;;;;-3275.30;92.20;;;;;;6213764;28;19931;-55
2021/12/11 05:57:00;;;;;;;;;;;-3275.30;92.00;;;;;;6218100;28;19968;-52
2021/12/11 06:00:01;;;;;;;;;;;-3275.30;92.00;;;;;;6204925;28;19934;-52
2021/12/11 06:03:02;;;;;;;;;;;-3275.30;92.10;;;;;;6237387;28;19949;-54
2021/12/11 06:06:04;;;;;;;;;;;-3275.30;92.20;;;;;;6255921;28;19925;-51
2021/12/11 06:09:06;;;;;;;;;;;-3275.30;92.20;;;;;;6215079;28;19927;-53
2021/12/11 06:12:08;;;;;;;;;;;-3275.30;92.30;;;;;;6222357;28;19981;-50
2021/12/11 06:15:09;;;;;;;;;;;-3275.30;92.20;;;;;;6223709;28;20003;-52
2021/12/11 06:18:15;;;;;;;;;;;-3275.30;92.30;;;;;;6207787;28;19926;-52
2021/12/11 06:21:16;;;;;;;;;;;-3275.50;92.20;;;;;;6249802;28;19921;-52
2021/12/11 06:24:17;;;;;;;;;;;-3275.50;92.10;;;;;;6231288;28;20011;-56
2021/12/11 06:27:18;;;;;;;;;;;-3275.50;92.10;;;;;;6203484;28;20211;-49
2021/12/11 06:30:19;;;;;;;;;;;-3275.50;92.30;;;;;;6200661;28;19982;-52
2021/12/11 06:33:21;;;;;;;;;;;-3275.60;92.30;;;;;;6200581;28;19930;-54
2021/12/11 06:36:23;;;;;;;;;;;-3275.70;92.10;;;;;;6184657;28;19935;-51
2021/12/11 06:39:24;;;;;;;;;;;-3275.70;92.40;;;;;;6200974;28;20303;-51
2021/12/11 06:42:25;;;;;;;;;;;-3275.70;92.50;;;;;;6200576;28;19953;-55
2021/12/11 06:45:26;;;;;;;;;;;-3275.70;92.60;;;;;;6224433;28;19927;-55
2021/12/11 06:48:27;;;;;;;;;;;-3275.70;92.60;;;;;;6208262;28;19928;-53
2021/12/11 06:51:28;;;;;;;;;;;-3275.70;92.60;;;;;;6225205;28;19934;-55
2021/12/11 06:54:29;;;;;;;;;;;-3275.70;92.60;;;;;;6224663;28;19978;-53
2021/12/11 06:57:29;;;;;;;;;;;-3275.70;92.60;;;;;;6224336;28;19959;-56
2021/12/11 07:00:30;;;;;;;;;;;-3275.80;92.40;;;;;;6218435;28;19942;-57
2021/12/11 07:03:31;;;;;;;;;;;-3275.80;92.00;;;;;;6220836;28;19944;-56
2021/12/11 07:06:32;;;;;;;;;;;-3275.80;92.10;;;;;;6226714;28;19931;-55
2021/12/11 07:09:33;;;;;;;;;;;-3275.80;92.00;;;;;;6218655;28;19935;-52
2021/12/11 07:12:34;;;;;;;;;;;-3275.90;92.00;;;;;;6214923;28;19943;-55
2021/12/11 07:15:34;;;;;;;;;;;-3276.00;91.80;;;;;;6220362;28;19993;-53
2021/12/11 07:18:35;;;;;;;;;;;-3276.20;91.90;;;;;;6210410;28;19949;-54
2021/12/11 07:21:36;;;;;;;;;;;-3276.10;91.20;;;;;;6211870;28;20031;-56
2021/12/11 07:24:39;;;;;;;;;;;-3276.20;91.10;;;;;;6220495;28;19946;-56
2021/12/11 07:27:40;;;;;;;;;;;-3276.10;91.20;;;;;;6205235;28;19926;-52
2021/12/11 07:30:42;;;;;;;;;;;-3276.20;91.00;;;;;;6222950;28;19926;-55
2021/12/11 07:33:44;;;;;;;;;;;-3276.20;90.30;;;;;;6229525;28;19938;-55
2021/12/11 07:36:45;;;;;;;;;;;-3276.20;89.80;;;;;;6202053;28;19951;-54
2021/12/11 07:39:46;;;;;;;;;;;-3276.20;90.30;;;;;;6212822;28;19930;-52
2021/12/11 07:42:47;;;;;;;;;;;-3276.20;90.50;;;;;;6215148;28;19949;-55
2021/12/11 07:45:47;;;;;;;;;;;-3276.20;90.30;;;;;;6218871;28;19954;-54
2021/12/11 07:48:48;;;;;;;;;;;-3276.20;90.40;;;;;;6222470;28;20015;-54
2021/12/11 07:51:50;;;;;;;;;;;-3276.20;90.40;;;;;;6228945;28;19936;-54
2021/12/11 07:54:51;;;;;;;;;;;-3276.20;90.30;;;;;;6228456;28;19938;-53
2021/12/11 07:57:52;;;;;;;;;;;-3276.20;90.30;;;;;;6248985;28;19963;-55
2021/12/11 08:00:53;;;;;;;;;;;-3276.20;90.30;;;;;;6228916;28;19930;-55
2021/12/11 08:03:57;;;;;;;;;;;-3276.30;90.10;;;;;;6228563;28;19948;-57
2021/12/11 08:06:58;;;;;;;;;;;-3276.40;90.20;;;;;;6227011;28;20122;-55
2021/12/11 08:09:58;;;;;;;;;;;-3276.40;90.10;;;;;;6236074;28;19931;-57
2021/12/11 08:13:00;;;;;;;;;;;-3276.30;90.20;;;;;;6228835;28;19989;-59
2021/12/11 08:16:01;;;;;;;;;;;-3276.40;89.80;;;;;;6208681;28;19929;-52
2021/12/11 08:19:03;;;;;;;;;;;-3276.40;89.90;;;;;;6252091;28;19950;-53
2021/12/11 08:22:07;;;;;;;;;;;-3276.40;89.90;;;;;;6241348;28;20004;-56
2021/12/11 08:25:08;;;;;;;;;;;-3276.40;90.00;;;;;;6227092;28;19928;-56
2021/12/11 08:28:10;;;;;;;;;;;-3276.40;89.90;;;;;;6232266;28;19925;-58
2021/12/11 08:31:12;;;;;;;;;;;-3276.50;89.80;;;;;;6212493;28;19943;-53
2021/12/11 08:34:13;;;;;;;;;;;-3276.50;90.10;;;;;;6211049;28;19934;-53
2021/12/11 08:37:20;;;;;;;;;;;-3276.50;90.10;;;;;;6243416;28;19921;-55
2021/12/11 08:40:24;;;;;;;;;;;-3276.50;90.10;;;;;;6226002;28;19939;-56
2021/12/11 08:43:25;;;;;;;;;;;-3276.40;90.20;;;;;;6242355;28;19951;-52
2021/12/11 08:46:28;;;;;;;;;;;-3276.50;90.40;;;;;;6215328;28;19996;-53
2021/12/11 08:49:31;;;;;;;;;;;-3276.50;90.00;;;;;;6221191;28;20423;-54
2021/12/11 08:52:33;;;;;;;;;;;-3276.50;90.30;;;;;;6233077;28;19933;-54
2021/12/11 08:55:36;;;;;;;;;;;-3276.60;90.30;;;;;;6219155;28;19950;-52
2021/12/11 08:58:37;;;;;;;;;;;-3276.60;90.20;;;;;;6210214;28;20043;-54
2021/12/11 09:01:56;;;;;;;;;;;-3276.70;90.10;;;;;;6210543;28;19950;-54
2021/12/11 09:05:00;;;;;;;;;;;-3276.70;89.90;;;;;;6254239;28;19971;-55
2021/12/11 09:08:07;;;;;;;;;;;-3276.70;89.90;;;;;;6239162;28;19925;-55
2021/12/11 09:11:24;;;;;;;;;;;-3276.60;89.90;;;;;;6210420;28;19937;-55
2021/12/11 09:14:34;;;;;;;;;;;-3276.60;90.20;;;;;;6209715;28;19929;-55
2021/12/11 09:17:43;;;;;;;;;;;-3276.60;90.20;;;;;;6210485;28;19930;-55
2021/12/11 09:20:49;;;;;;;;;;;-3276.70;90.10;;;;;;6231751;28;19935;-57
2021/12/11 09:24:03;;;;;;;;;;;-3276.60;89.80;;;;;;6217071;28;20044;-54
2021/12/11 09:27:04;;;;;;;;;;;-3276.60;89.90;;;;;;6235579;28;19981;-50
2021/12/11 09:30:08;;;;;;;;;;;-3276.70;89.80;;;;;;6213687;28;19953;-56
2021/12/11 09:33:11;;;;;;;;;;;-3276.70;90.30;;;;;;6245414;28;19964;-52
2021/12/11 09:36:14;;;;;;;;;;;-3276.70;89.90;;;;;;6220911;28;19928;-52
2021/12/11 09:39:21;;;;;;;;;;;0.00;90.00;;;;;;6226519;28;20120;-57
2021/12/11 09:42:21;;;;;;;;;;;0.00;90.10;;;;;;6232541;28;19948;-57
2021/12/11 09:45:25;;;;;;;;;;;0.00;89.90;;;;;;6259056;28;19981;-56
2021/12/11 09:48:25;;;;;;;;;;;0.00;89.80;;;;;;6214324;28;19961;-54
2021/12/11 09:51:30;;;;;;;;;;;0.00;89.50;;;;;;6240024;28;19948;-53
2021/12/11 09:54:34;;;;;;;;;;;0.10;89.60;;;;;;6248856;28;19935;-55
2021/12/11 09:57:38;;;;;;;;;;;0.10;89.50;;;;;;6220927;28;19958;-53
2021/12/11 10:00:47;;;;;;;;;;;0.20;89.70;;;;;;6242020;28;20024;-55
2021/12/11 10:04:00;;;;;;;;;;;0.30;89.60;;;;;;6212820;28;19964;-52
2021/12/11 10:10:08;;;;;;;;;;;0.60;87.60;;;;;;6218064;28;19908;-55
2021/12/11 10:13:09;;;;;;;;;;;0.60;87.20;;;;;;6256249;28;19920;-51
2021/12/11 10:16:10;;;;;;;;;;;0.50;87.50;;;;;;6217133;28;19913;-51
2021/12/11 10:19:14;;;;;;;32.22;17.83;;;0.60;87.40;;;;;;6219901;28;24541;-58
2021/12/11 10:22:29;;;;;;;26.40;14.90;;;0.70;87.50;;;;;;6231912;28;20310;-52
2021/12/11 10:25:33;;;;;;;27.87;15.00;;;0.60;87.30;;;;;;6225404;28;20191;-53
2021/12/11 10:28:34;;;;;;;23.65;10.80;;;0.70;87.20;;;;;;6222372;28;20647;-51
2021/12/11 10:31:37;;;;;;;;;;;0.70;87.40;;;;;;6190047;28;20199;-57
2021/12/11 10:34:41;;;;;;;23.17;14.60;;;0.80;87.30;;;;;;6218862;28;24442;-66
2021/12/11 10:37:43;;;;;;;30.53;16.20;;;0.80;87.30;;;;;;6217201;28;20218;-66
2021/12/11 10:40:48;;;;;;;24.23;14.43;;;0.80;86.00;;;;;;6211311;28;20279;-67
2021/12/11 10:43:52;;;;;;;29.47;16.17;;;0.60;86.20;;;;;;6219455;28;20231;-67
2021/12/11 10:47:03;;;;;;;31.80;16.23;;;0.60;87.20;;;;;;6234516;28;20259;-67
2021/12/11 10:50:12;;;;;;;28.17;15.67;;;0.70;87.80;;;;;;6233409;28;20187;-68
2021/12/11 10:53:23;;;;;;;28.60;15.20;;;0.60;87.50;;;;;;6223946;28;20176;-67
2021/12/11 10:56:25;;;;;;;26.77;15.67;;;0.70;86.70;;;;;;6230235;28;20295;-68
2021/12/11 10:59:31;;;;;;;30.10;15.73;;;0.60;87.40;;;;;;6227517;28;20195;-67
2021/12/11 11:02:32;;;;;;;28.63;16.07;;;0.40;87.40;;;;;;6223702;28;20234;-67
2021/12/11 11:05:35;;;;;;;26.17;15.60;;;0.60;87.20;;;;;;6211650;28;20190;-68
2021/12/11 11:08:38;;;;;;;29.27;16.77;;;0.70;86.50;;;;;;6237557;28;20221;-70
2021/12/11 11:11:40;;;;;;;28.57;14.60;;;0.70;86.50;;;;;;6230303;28;20191;-68
2021/12/11 11:14:41;;;;;;;31.60;15.03;;;0.70;86.70;;;;;;6229371;28;20197;-68
2021/12/11 11:17:42;;;;;;;28.57;16.97;;;0.70;86.40;;;;;;6225308;28;20197;-68
2021/12/11 11:20:57;;;;;;;27.73;14.10;;;0.70;87.30;;;;;;6214054;28;20289;-73
2021/12/11 11:23:59;;;;;;;24.23;14.00;;;0.60;86.20;;;;;;6241440;28;20297;-72
2021/12/11 11:27:02;;;;;;;29.53;16.17;;;0.60;86.50;;;;;;6215279;28;20215;-72
2021/12/11 11:30:08;;;;;;;26.73;13.30;;;0.70;86.10;;;;;;6254176;28;20203;-73
2021/12/11 11:33:11;;;;;;;28.30;14.37;;;0.60;86.40;;;;;;6222227;28;20189;-73
2021/12/11 11:36:15;;;;;;;27.10;14.77;;;0.50;87.20;;;;;;6206216;28;20335;-71
2021/12/11 11:39:20;;;;;;;28.00;14.67;;;0.60;86.50;;;;;;6244677;28;20241;-72
2021/12/11 11:42:21;;;;;;;22.77;12.70;;;0.60;86.00;;;;;;6227587;28;20248;-72
2021/12/11 11:45:22;;;;;;;23.83;13.20;;;0.80;86.10;;;;;;6217922;28;20281;-70
2021/12/11 11:48:25;;;;;;;23.50;12.33;;;0.80;86.30;;;;;;6253164;28;20187;-71
2021/12/11 11:51:31;;;;;;;17.20;12.33;;;0.80;85.10;;;;;;6230626;28;20258;-72
2021/12/11 11:54:36;;;;;;;27.20;13.63;;;0.60;86.20;;;;;;6221521;28;20192;-72
2021/12/11 11:57:43;;;;;;;23.90;12.60;;;0.60;85.70;;;;;;6222120;28;20252;-71
2021/12/11 12:00:50;;;;;;;27.27;14.63;;;0.80;86.00;;;;;;6227850;28;20208;-71
2021/12/11 12:03:51;;;;;;;25.63;13.40;;;0.50;85.40;;;;;;6229597;28;20214;-71
2021/12/11 12:06:59;;;;;;;22.90;12.60;;;0.60;86.90;;;;;;6220469;28;20191;-72
2021/12/11 12:10:13;;;;;;;23.47;11.73;;;0.80;85.10;;;;;;6204743;28;20196;-71
2021/12/11 12:13:19;;;;;;;19.37;10.80;;;0.80;84.70;;;;;;6216675;28;20242;-71
2021/12/11 12:16:19;;;;;;;24.13;12.63;;;0.70;84.70;;;;;;6214601;28;20719;-70
2021/12/11 12:19:22;;;;;;;18.90;11.03;;;0.70;84.60;;;;;;6194998;28;20195;-71
2021/12/11 12:22:24;;;;;;;16.40;10.33;;;0.80;85.00;;;;;;6215211;28;20216;-71
2021/12/11 12:25:26;;;;;;;17.57;10.00;;;0.70;84.50;;;;;;6211941;28;20196;-71
2021/12/11 12:28:29;;;;;;;18.57;9.63;;;0.80;84.80;;;;;;6207963;28;20275;-70
2021/12/11 12:32:00;;;;;;;15.43;9.40;;;0.80;84.10;;;;;;6225717;28;20200;-70
2021/12/11 12:35:06;;;;;;;15.97;9.77;;;0.90;85.10;;;;;;6224462;28;20213;-71
2021/12/11 12:38:13;;;;;;;17.00;8.97;;;0.90;83.80;;;;;;6240328;28;20273;-71
2021/12/11 12:41:39;;;;;;;15.23;9.60;;;1.00;83.90;;;;;;6216979;28;20210;-71
2021/12/11 12:44:40;;;;;;;15.80;9.43;;;0.90;83.90;;;;;;6233770;28;20234;-70
2021/12/11 12:47:46;;;;;;;16.60;10.87;;;0.80;84.60;;;;;;6224768;28;20661;-71
2021/12/11 12:50:50;;;;;;;15.67;10.53;;;0.80;84.90;;;;;;6219212;28;20194;-70
2021/12/11 12:53:51;;;;;;;14.50;9.73;;;0.80;85.00;;;;;;6208370;28;20191;-71
2021/12/11 12:57:11;;;;;;;13.83;8.70;;;0.80;85.10;;;;;;6224297;28;20329;-71
2021/12/11 13:00:39;;;;;;;13.87;8.20;;;0.90;85.50;;;;;;6223809;28;20195;-70
2021/12/11 13:03:42;;;;;;;15.50;9.43;;;1.00;84.80;;;;;;6224226;28;20214;-71
2021/12/11 13:06:47;;;;;;;15.03;9.00;;;0.90;84.60;;;;;;6197923;28;20183;-70
2021/12/11 13:09:53;;;;;;;15.07;8.07;;;0.90;85.30;;;;;;6228520;28;20206;-70
2021/12/11 13:12:53;;;;;;;16.97;8.77;;;0.90;85.30;;;;;;6213845;28;20203;-70
2021/12/11 13:16:08;;;;;;;16.07;9.60;;;0.90;85.20;;;;;;6211517;28;20246;-70
2021/12/11 13:19:21;;;;;;;16.80;10.10;;;0.90;85.00;;;;;;6224004;28;20656;-70
2021/12/11 13:22:29;;;;;;;13.83;8.27;;;0.80;84.60;;;;;;6214928;28;20207;-70
2021/12/11 13:25:50;;;;;;;14.27;8.67;;;0.80;85.50;;;;;;6234709;28;20198;-69
2021/12/11 13:28:56;;;;;;;12.20;8.90;;;0.80;86.10;;;;;;6214441;28;20275;-68
2021/12/11 13:32:00;;;;;;;13.77;9.33;;;0.80;85.30;;;;;;6210834;28;20235;-70
2021/12/11 13:35:08;;;;;;;13.57;9.43;;;0.80;84.40;;;;;;6212982;28;20188;-69
2021/12/11 13:38:11;;;;;;;14.00;8.73;;;0.80;85.40;;;;;;6211461;28;20186;-69
2021/12/11 13:41:19;;;;;;;12.80;7.10;;;0.80;85.40;;;;;;6213610;28;20183;-69
2021/12/11 13:44:22;;;;;;;16.93;9.90;;;0.70;85.60;;;;;;6213308;28;20306;-69
2021/12/11 13:47:28;;;;;;;13.40;9.03;;;0.70;85.60;;;;;;6193735;28;20186;-69
2021/12/11 13:50:36;;;;;;;17.97;10.53;;;0.70;86.10;;;;;;6213281;28;20194;-69
2021/12/11 13:53:39;;;;;;;20.27;10.77;;;0.60;87.00;;;;;;6212105;28;20234;-70
2021/12/11 13:56:53;;;;;;;17.37;10.80;;;0.60;86.70;;;;;;6232529;28;20728;-70
2021/12/11 13:59:57;;;;;;;13.37;9.37;;;0.70;86.00;;;;;;6223306;28;20203;-69
2021/12/11 14:02:58;;;;;;;15.93;10.20;;;0.80;86.10;;;;;;6200635;28;20247;-69
2021/12/11 14:06:03;;;;;;;15.20;9.73;;;0.60;85.50;;;;;;6204002;28;20195;-70
2021/12/11 14:09:06;;;;;;;13.77;8.73;;;0.60;86.90;;;;;;6229965;28;20190;-70
2021/12/11 14:12:09;;;;;;;19.87;10.40;;;0.50;86.40;;;;;;6229863;28;20216;-71
2021/12/11 14:15:10;;;;;;;14.97;9.87;;;0.50;87.60;;;;;;6243077;28;20192;-69
2021/12/11 14:18:11;;;;;;;14.37;9.80;;;0.40;87.70;;;;;;6242849;28;20256;-70
2021/12/11 14:21:12;;;;;;;16.90;10.90;;;0.40;86.40;;;;;;6204746;28;20183;-70
2021/12/11 14:24:13;;;;;;;16.43;9.63;;;0.40;87.00;;;;;;6204650;28;20269;-71
2021/12/11 14:27:15;;;;;;;16.73;10.50;;;0.40;86.70;;;;;;6234945;28;20186;-70
2021/12/11 14:30:18;;;;;;;15.50;10.00;;;0.30;86.80;;;;;;6221499;28;20281;-70
2021/12/11 14:33:19;;;;;;;16.07;9.63;;;0.40;87.20;;;;;;6225955;28;20230;-70
2021/12/11 14:36:23;;;;;;;17.00;9.80;;;0.40;87.30;;;;;;6228107;28;20206;-71
2021/12/11 14:39:25;;;;;;;14.30;9.00;;;0.50;86.70;;;;;;6208127;28;20192;-70
2021/12/11 14:42:28;;;;;;;15.43;10.80;;;0.40;86.90;;;;;;6208044;28;20226;-71
2021/12/11 14:45:32;;;;;;;17.53;10.00;;;0.40;87.30;;;;;;6209462;28;20186;-69
2021/12/11 14:48:33;;;;;;;16.67;10.67;;;0.40;87.60;;;;;;6199251;28;20187;-71
2021/12/11 14:51:35;;;;;;;15.33;9.07;;;0.30;87.90;;;;;;6217680;28;20198;-73
2021/12/11 14:54:37;;;;;;;14.13;10.27;;;0.30;88.10;;;;;;6191574;28;20201;-73
2021/12/11 14:57:38;;;;;;;16.53;9.80;;;0.40;87.90;;;;;;6239776;28;20245;-74
2021/12/11 15:00:43;;;;;;;16.10;9.87;;;0.30;88.60;;;;;;6249232;28;20190;-74
2021/12/11 15:03:45;;;;;;;17.70;11.10;;;0.30;89.10;;;;;;6228889;28;20267;-74
2021/12/11 15:06:46;;;;;;;17.33;9.63;;;0.30;88.50;;;;;;6224401;28;20214;-74
2021/12/11 15:09:48;;;;;;;14.83;9.77;;;0.40;88.60;;;;;;6224134;28;20188;-70
2021/12/11 15:12:49;;;;;;;17.80;10.23;;;0.40;89.20;;;;;;6247539;28;20232;-68
2021/12/11 15:15:50;;;;;;;16.87;10.03;;;0.30;89.20;;;;;;6232012;28;20189;-66
2021/12/11 15:18:54;;;;;;;16.90;10.97;;;0.40;89.20;;;;;;6231785;28;20232;-68
2021/12/11 15:21:55;;;;;;;19.30;11.47;;;0.40;88.90;;;;;;6215305;28;20206;-67
2021/12/11 15:25:01;;;;;;;16.87;10.67;;;0.40;89.20;;;;;;6248356;28;20214;-70
2021/12/11 15:28:03;;;;;;;18.37;11.77;;;0.30;89.20;;;;;;6243723;28;20180;-71
2021/12/11 15:31:11;;;;;;;20.50;12.90;;;0.30;89.30;;;;;;6198687;28;20197;-70
2021/12/11 15:34:14;;;;;;;19.40;12.57;;;0.40;89.20;;;;;;6212752;28;20205;-67
2021/12/11 15:37:15;;;;;;;22.50;12.93;;;0.30;88.70;;;;;;6239064;28;20192;-68
2021/12/11 15:40:21;;;;;;;21.13;12.27;;;0.30;88.80;;;;;;6209662;28;20203;-67
2021/12/11 15:43:25;;;;;;;18.83;11.33;;;0.20;89.20;;;;;;6208383;28;20241;-67
2021/12/11 15:46:26;;;;;;;20.57;12.27;;;0.20;89.90;;;;;;6228195;28;20187;-67
2021/12/11 15:49:28;;;;;;;21.33;12.33;;;0.20;89.70;;;;;;6220845;28;20220;-67
2021/12/11 15:52:30;;;;;;;21.70;14.10;;;0.30;89.60;;;;;;6204824;28;20246;-68
2021/12/11 15:55:33;;;;;;;20.20;12.53;;;0.20;89.80;;;;;;6195771;28;20202;-67
2021/12/11 15:58:38;;;;;;;20.30;12.17;;;0.20;89.80;;;;;;6233264;28;20236;-67
2021/12/11 16:01:43;;;;;;;19.20;12.37;;;0.30;90.10;;;;;;6216861;28;20179;-68
2021/12/11 16:04:44;;;;;;;22.50;12.43;;;0.30;89.70;;;;;;6196464;28;20203;-68
2021/12/11 16:07:47;;;;;;;21.37;13.50;;;0.30;89.80;;;;;;6211999;28;20187;-68
2021/12/11 16:10:48;;;;;;;22.80;14.27;;;0.30;89.60;;;;;;6216616;28;20197;-68
2021/12/11 16:13:50;;;;;;;22.70;13.30;;;0.20;90.30;;;;;;6216386;28;20194;-68
2021/12/11 16:16:54;;;;;;;22.57;13.37;;;0.10;90.30;;;;;;6201271;28;20217;-69
2021/12/11 16:20:00;;;;;;;24.27;13.83;;;0.10;90.20;;;;;;6240759;28;20252;-69
2021/12/11 16:23:02;;;;;;;22.53;12.53;;;0.10;89.60;;;;;;6189615;28;20240;-70
2021/12/11 16:26:03;;;;;;;20.67;11.47;;;0.20;89.90;;;;;;6210998;28;20270;-72
2021/12/11 16:29:05;;;;;;;22.47;13.47;;;0.30;90.00;;;;;;6206542;28;20194;-69
2021/12/11 16:32:07;;;;;;;24.77;14.23;;;0.20;89.70;;;;;;6227964;28;20191;-69
2021/12/11 16:35:09;;;;;;;24.27;12.07;;;0.20;90.70;;;;;;6213649;28;20210;-69
2021/12/11 16:38:10;;;;;;;22.07;14.07;;;0.20;90.70;;;;;;6223083;28;20183;-69
2021/12/11 16:41:19;;;;;;;25.50;15.20;;;0.20;90.30;;;;;;6232815;28;20210;-69
2021/12/11 16:44:23;;;;;;;21.63;13.93;;;0.20;90.70;;;;;;6248452;28;20226;-69
2021/12/11 16:47:23;;;;;;;24.40;14.37;;;0.20;90.50;;;;;;6220603;28;20187;-69
2021/12/11 16:50:31;;;;;;;26.03;16.10;;;0.20;90.30;;;;;;6196681;28;20190;-70